createdAt,value
2023-03-19T00:02:22.754Z,17.13
2023-03-19T00:04:52.969Z,15.30
2023-03-19T00:07:23.211Z,14.68
2023-03-19T00:09:53.632Z,15.85
2023-03-19T00:12:24.196Z,16.00
2023-03-19T00:14:54.504Z,14.17
2023-03-19T00:17:25.322Z,15.17
2023-03-19T00:19:55.611Z,14.63
2023-03-19T00:22:25.877Z,16.08
2023-03-19T00:24:57.036Z,14.73
2023-03-19T00:27:27.880Z,15.03
2023-03-19T00:29:58.044Z,15.25
2023-03-19T00:32:28.803Z,15.07
2023-03-19T00:34:59.121Z,15.68
2023-03-19T00:37:30.160Z,15.23
2023-03-19T00:40:00.662Z,15.27
2023-03-19T00:42:30.741Z,15.80
2023-03-19T00:45:00.642Z,14.73
2023-03-19T00:47:30.771Z,15.60
2023-03-19T00:50:01.021Z,15.75
2023-03-19T00:52:31.082Z,15.68
2023-03-19T00:55:01.225Z,15.35
2023-03-19T00:57:31.973Z,15.15
2023-03-19T01:00:03.125Z,15.00
2023-03-19T01:02:35.184Z,16.73
2023-03-19T01:05:05.624Z,15.40
2023-03-19T01:07:35.868Z,16.37
2023-03-19T01:10:07.099Z,16.60
2023-03-19T01:12:37.381Z,16.48
2023-03-19T01:15:16.125Z,15.23
2023-03-19T01:17:46.350Z,15.80
2023-03-19T01:20:22.267Z,16.45
2023-03-19T01:22:53.236Z,18.02
2023-03-19T01:25:24.454Z,16.15
2023-03-19T01:28:04.088Z,16.85
2023-03-19T01:30:34.691Z,16.65
2023-03-19T01:33:17.886Z,16.67
2023-03-19T01:36:07.369Z,16.45
2023-03-19T01:38:52.136Z,16.77
2023-03-19T01:41:22.572Z,16.25
2023-03-19T01:43:54.839Z,17.80
2023-03-19T01:47:02.214Z,17.23
2023-03-19T01:49:42.688Z,16.87
2023-03-19T01:55:30.354Z,18.30
2023-03-19T01:58:15.599Z,18.73
2023-03-19T02:01:16.572Z,18.50
2023-03-19T02:03:50.513Z,19.45
2023-03-19T02:06:32.536Z,18.97
2023-03-19T02:09:03.264Z,19.27
2023-03-19T02:11:34.467Z,19.13
2023-03-19T02:16:34.722Z,21.55
2023-03-19T02:19:05.068Z,20.33
2023-03-19T02:21:35.912Z,20.10
2023-03-19T02:24:19.881Z,18.25
2023-03-19T02:27:05.930Z,18.10
2023-03-19T02:29:36.685Z,19.60
2023-03-19T02:32:07.419Z,18.88
2023-03-19T02:34:42.393Z,18.77
2023-03-19T02:37:39.016Z,17.65
2023-03-19T02:40:15.857Z,19.20
2023-03-19T02:42:46.024Z,18.95
2023-03-19T02:45:17.109Z,16.42
2023-03-19T02:47:47.242Z,18.25
2023-03-19T02:50:17.264Z,18.30
2023-03-19T02:52:47.431Z,17.92
2023-03-19T02:55:20.934Z,17.58
2023-03-19T02:57:52.077Z,18.25
2023-03-19T03:00:23.006Z,18.42
2023-03-19T03:05:24.791Z,20.42
2023-03-19T03:07:55.994Z,20.13
2023-03-19T03:10:26.131Z,18.70
2023-03-19T03:12:56.475Z,19.08
2023-03-19T03:16:15.314Z,18.42
2023-03-19T03:18:45.546Z,19.13
2023-03-19T03:21:16.327Z,18.23
2023-03-19T03:23:47.227Z,20.58
2023-03-19T03:26:17.993Z,19.70
2023-03-19T03:31:20.248Z,19.75
2023-03-19T03:33:52.307Z,19.45
2023-03-19T03:36:22.486Z,19.42
2023-03-19T03:38:52.612Z,19.77
2023-03-19T03:41:23.698Z,20.05
2023-03-19T03:43:54.557Z,21.08
2023-03-19T03:46:27.740Z,21.67
2023-03-19T03:48:58.196Z,22.05
2023-03-19T03:51:28.849Z,21.03
2023-03-19T03:54:00.045Z,21.17
2023-03-19T03:56:30.357Z,21.40
2023-03-19T03:59:00.423Z,20.10
2023-03-19T04:01:31.316Z,21.08
2023-03-19T04:04:02.592Z,20.80
2023-03-19T04:06:33.398Z,20.50
2023-03-19T04:09:23.085Z,20.08
2023-03-19T04:11:54.268Z,20.95
2023-03-19T04:14:24.925Z,22.05
2023-03-19T04:16:55.417Z,21.13
2023-03-19T04:19:25.591Z,21.27
2023-03-19T04:21:55.700Z,22.05
2023-03-19T04:24:26.184Z,22.73
2023-03-19T04:26:56.357Z,22.43
2023-03-19T04:29:26.501Z,21.88
2023-03-19T04:31:56.624Z,22.02
2023-03-19T04:34:27.713Z,21.60
2023-03-19T04:36:58.663Z,21.60
2023-03-19T04:39:29.385Z,21.83
2023-03-19T04:42:00.848Z,21.05
2023-03-19T04:44:37.501Z,22.15
2023-03-19T04:47:08.287Z,22.67
2023-03-19T04:49:51.102Z,20.35
2023-03-19T04:52:22.658Z,20.83
2023-03-19T04:54:53.401Z,21.57
2023-03-19T04:57:23.586Z,22.27
2023-03-19T04:59:56.432Z,21.95
2023-03-19T05:02:26.953Z,21.40
2023-03-19T05:04:58.758Z,20.33
2023-03-19T05:07:29.478Z,20.97
2023-03-19T05:10:02.627Z,19.85
2023-03-19T05:12:33.022Z,20.42
2023-03-19T05:15:03.930Z,21.92
2023-03-19T05:17:38.695Z,21.48
2023-03-19T05:20:17.569Z,21.58
2023-03-19T05:22:55.319Z,21.80
2023-03-19T05:25:37.572Z,24.02
2023-03-19T05:28:10.972Z,21.55
2023-03-19T05:30:41.476Z,20.57
2023-03-19T05:33:20.122Z,21.52
2023-03-19T05:35:51.006Z,22.37
2023-03-19T05:38:26.872Z,23.55
2023-03-19T05:41:10.272Z,24.70
2023-03-19T05:43:48.759Z,22.45
2023-03-19T05:46:34.676Z,21.77
2023-03-19T05:49:04.862Z,23.03
2023-03-19T05:51:36.587Z,23.60
2023-03-19T05:54:07.022Z,22.35
2023-03-19T05:56:39.521Z,23.17
2023-03-19T05:59:48.216Z,22.63
2023-03-19T06:02:38.599Z,24.58
2023-03-19T06:05:34.854Z,22.75
2023-03-19T06:08:13.488Z,23.05
2023-03-19T06:11:02.025Z,25.33
2023-03-19T06:13:32.702Z,24.80
2023-03-19T06:16:07.644Z,24.95
2023-03-19T06:18:41.461Z,24.38
2023-03-19T06:21:14.528Z,24.23
2023-03-19T06:23:44.541Z,24.92
2023-03-19T06:26:18.006Z,25.05
2023-03-19T06:28:56.302Z,24.98
2023-03-19T06:31:26.918Z,24.05
2023-03-19T06:34:01.266Z,25.80
2023-03-19T06:36:40.552Z,24.80
2023-03-19T06:39:13.386Z,25.13
2023-03-19T06:41:43.737Z,24.42
2023-03-19T06:44:19.215Z,25.52
2023-03-19T06:46:49.262Z,24.63
2023-03-19T06:49:23.790Z,25.77
2023-03-19T06:51:54.869Z,25.65
2023-03-19T06:56:54.580Z,27.00
2023-03-19T06:59:24.835Z,26.55
2023-03-19T07:01:54.911Z,25.73
2023-03-19T07:04:25.087Z,26.33
2023-03-19T07:06:55.234Z,25.38
2023-03-19T07:09:25.704Z,26.38
2023-03-19T07:11:55.898Z,24.63
2023-03-19T07:14:26.727Z,25.42
2023-03-19T07:16:56.811Z,24.98
2023-03-19T07:19:26.849Z,26.83
2023-03-19T07:21:57.032Z,25.83
2023-03-19T07:24:27.154Z,24.55
2023-03-19T07:26:57.130Z,24.58
2023-03-19T07:29:27.219Z,24.77
2023-03-19T07:31:57.441Z,24.02
2023-03-19T07:34:28.535Z,23.83
2023-03-19T07:36:58.930Z,23.77
2023-03-19T07:39:28.795Z,24.25
2023-03-19T07:41:58.906Z,23.73
2023-03-19T07:44:29.026Z,23.45
2023-03-19T07:46:59.147Z,24.02
2023-03-19T07:49:29.059Z,24.10
2023-03-19T07:51:59.033Z,25.67
2023-03-19T07:54:28.888Z,24.85
2023-03-19T07:56:58.757Z,24.50
2023-03-19T07:59:28.858Z,24.75
2023-03-19T08:01:58.740Z,24.58
2023-03-19T08:04:29.353Z,23.70
2023-03-19T08:06:59.450Z,24.70
2023-03-19T08:09:29.784Z,23.85
2023-03-19T08:11:59.851Z,23.47
2023-03-19T08:14:29.727Z,23.90
2023-03-19T08:16:59.899Z,24.35
2023-03-19T08:19:30.399Z,23.55
2023-03-19T08:22:00.301Z,23.23
2023-03-19T08:24:30.510Z,24.13
2023-03-19T08:27:00.893Z,24.13
2023-03-19T08:29:31.820Z,24.00
2023-03-19T08:32:03.386Z,22.80
2023-03-19T08:34:33.735Z,24.38
2023-03-19T08:37:04.274Z,24.33
2023-03-19T08:39:34.347Z,24.10
2023-03-19T08:42:04.181Z,23.27
2023-03-19T08:44:34.356Z,23.63
2023-03-19T08:47:04.890Z,24.37
2023-03-19T08:49:35.491Z,24.43
2023-03-19T08:52:05.665Z,23.23
2023-03-19T08:54:36.006Z,23.35
2023-03-19T08:57:06.497Z,23.57
2023-03-19T08:59:36.644Z,23.37
2023-03-19T09:02:06.636Z,23.30
2023-03-19T09:04:41.146Z,23.05
2023-03-19T09:07:15.280Z,23.20
2023-03-19T09:09:47.170Z,23.55
2023-03-19T09:12:19.136Z,22.73
2023-03-19T09:14:49.108Z,22.40
2023-03-19T09:17:20.384Z,21.95
2023-03-19T09:19:50.599Z,21.90
2023-03-19T09:22:20.673Z,23.23
2023-03-19T09:24:50.666Z,23.83
2023-03-19T09:27:21.288Z,21.88
2023-03-19T09:29:51.413Z,22.63
2023-03-19T09:32:21.725Z,21.95
2023-03-19T09:34:51.794Z,21.20
2023-03-19T09:37:21.821Z,21.80
2023-03-19T09:39:52.014Z,20.73
2023-03-19T09:42:39.670Z,21.63
2023-03-19T09:45:21.363Z,21.85
2023-03-19T09:47:58.388Z,21.38
2023-03-19T09:50:34.667Z,21.67
2023-03-19T09:53:19.107Z,21.88
2023-03-19T09:55:56.973Z,21.38
2023-03-19T09:58:34.258Z,23.42
2023-03-19T10:01:06.296Z,23.70
2023-03-19T10:04:03.981Z,22.45
2023-03-19T10:06:38.925Z,23.27
2023-03-19T10:09:23.911Z,23.80
2023-03-19T10:12:05.170Z,22.63
2023-03-19T10:17:20.856Z,30.27
2023-03-19T10:20:28.097Z,25.63
2023-03-19T10:23:13.203Z,22.52
2023-03-19T10:25:47.193Z,19.75
2023-03-19T10:28:20.875Z,19.70
2023-03-19T10:31:00.037Z,18.48
2023-03-19T10:33:46.361Z,19.20
2023-03-19T10:36:16.950Z,60.70
2023-03-19T10:38:47.129Z,24.50
2023-03-19T10:41:34.768Z,19.50
2023-03-19T10:44:08.304Z,17.63
2023-03-19T10:46:44.522Z,17.13
2023-03-19T10:49:16.902Z,17.90
2023-03-19T10:51:48.696Z,18.08
2023-03-19T10:54:27.957Z,16.52
2023-03-19T10:57:01.068Z,17.45
2023-03-19T10:59:38.868Z,18.85
2023-03-19T11:02:34.080Z,18.77
2023-03-19T11:05:27.251Z,16.55
2023-03-19T11:08:04.355Z,17.70
2023-03-19T11:10:38.185Z,16.88
2023-03-19T11:13:18.370Z,16.92
2023-03-19T11:15:50.854Z,16.95
2023-03-19T11:18:27.641Z,16.52
2023-03-19T11:21:04.447Z,16.67
2023-03-19T11:23:45.080Z,16.35
2023-03-19T11:26:23.113Z,17.03
2023-03-19T11:28:54.647Z,17.38
2023-03-19T11:31:36.762Z,17.35
2023-03-19T11:34:34.462Z,16.77
2023-03-19T11:37:11.822Z,16.85
2023-03-19T11:40:00.691Z,18.30
2023-03-19T11:42:55.722Z,17.35
2023-03-19T11:45:33.191Z,17.15
2023-03-19T11:48:32.257Z,18.52
2023-03-19T11:51:08.339Z,17.80
2023-03-19T11:53:50.388Z,20.10
2023-03-19T11:56:41.834Z,20.10
2023-03-19T12:02:03.984Z,19.70
2023-03-19T12:04:40.164Z,20.45
2023-03-19T12:07:21.985Z,21.88
2023-03-19T12:09:58.136Z,20.77
2023-03-19T12:12:37.356Z,21.48
2023-03-19T12:15:36.596Z,22.00
2023-03-19T12:18:18.687Z,22.35
2023-03-19T12:20:55.584Z,22.35
2023-03-19T12:23:35.989Z,22.98
2023-03-19T12:26:09.134Z,23.27
2023-03-19T12:28:59.011Z,22.83
2023-03-19T12:31:53.543Z,22.77
2023-03-19T12:34:27.104Z,22.73
2023-03-19T12:37:23.491Z,22.33
2023-03-19T12:40:09.189Z,24.60
2023-03-19T12:42:43.223Z,22.25
2023-03-19T12:45:24.996Z,23.88
2023-03-19T12:48:00.570Z,23.88
2023-03-19T12:50:33.719Z,22.45
2023-03-19T12:53:05.584Z,22.20
2023-03-19T12:55:52.272Z,23.83
2023-03-19T12:58:30.430Z,23.88
2023-03-19T13:01:16.695Z,22.50
2023-03-19T13:03:59.468Z,22.95
2023-03-19T13:06:43.556Z,21.27
2023-03-19T13:09:42.006Z,23.15
2023-03-19T13:12:26.737Z,23.83
2023-03-19T13:15:11.049Z,22.67
2023-03-19T13:17:49.601Z,23.65
2023-03-19T13:20:58.941Z,23.52
2023-03-19T13:23:34.506Z,22.95
2023-03-19T13:26:07.275Z,23.40
2023-03-19T13:28:40.800Z,22.25
2023-03-19T13:31:32.357Z,22.80
2023-03-19T13:34:20.460Z,23.17
2023-03-19T13:37:09.436Z,23.63
2023-03-19T13:39:40.311Z,22.15
2023-03-19T13:42:31.484Z,21.77
2023-03-19T13:45:27.291Z,21.58
2023-03-19T13:48:03.185Z,22.35
2023-03-19T13:51:12.915Z,22.27
2023-03-19T13:53:54.552Z,21.98
2023-03-19T13:58:55.016Z,22.38
2023-03-19T14:01:30.916Z,23.30
2023-03-19T14:04:17.286Z,23.27
2023-03-19T14:06:54.893Z,23.10
2023-03-19T14:09:33.442Z,24.85
2023-03-19T14:12:37.650Z,20.70
2023-03-19T14:15:21.691Z,21.60
2023-03-19T14:17:56.462Z,21.85
2023-03-19T14:20:37.427Z,22.35
2023-03-19T14:23:12.827Z,21.60
2023-03-19T14:26:13.178Z,22.05
2023-03-19T14:29:19.023Z,22.40
2023-03-19T14:31:58.162Z,21.65
2023-03-19T14:34:57.616Z,21.48
2023-03-19T14:37:32.161Z,20.73
2023-03-19T14:40:20.631Z,21.13
2023-03-19T14:42:56.335Z,22.92
2023-03-19T14:45:48.693Z,21.27
2023-03-19T14:48:35.068Z,21.67
2023-03-19T14:51:48.794Z,21.10
2023-03-19T14:54:47.051Z,21.27
2023-03-19T14:57:22.495Z,21.17
2023-03-19T14:59:53.247Z,21.52
2023-03-19T15:02:35.208Z,20.75
2023-03-19T15:05:12.231Z,21.38
2023-03-19T15:07:49.259Z,20.67
2023-03-19T15:10:24.593Z,20.55
2023-03-19T15:13:09.366Z,21.55
2023-03-19T15:15:46.644Z,22.02
2023-03-19T15:18:18.920Z,22.35
2023-03-19T15:20:56.535Z,22.25
2023-03-19T15:23:31.508Z,22.60
2023-03-19T15:26:04.025Z,22.60
2023-03-19T15:28:38.468Z,22.27
2023-03-19T15:31:28.791Z,21.52
2023-03-19T15:33:59.912Z,22.30
2023-03-19T15:36:35.794Z,23.58
2023-03-19T15:39:09.238Z,22.52
2023-03-19T15:41:43.477Z,21.98
2023-03-19T15:44:38.598Z,21.13
2023-03-19T15:47:13.641Z,22.23
2023-03-19T15:49:51.605Z,20.85
2023-03-19T15:52:45.032Z,21.08
2023-03-19T15:58:06.199Z,21.02
2023-03-19T16:00:40.380Z,20.60
2023-03-19T16:03:18.713Z,20.30
2023-03-19T16:05:54.398Z,21.45
2023-03-19T16:08:29.580Z,21.17
2023-03-19T16:11:16.489Z,21.30
2023-03-19T16:14:00.100Z,21.63
2023-03-19T16:16:35.576Z,20.75
2023-03-19T16:19:14.736Z,20.58
2023-03-19T16:21:46.044Z,20.45
2023-03-19T16:24:33.123Z,19.83
2023-03-19T16:27:19.324Z,19.90
2023-03-19T16:30:02.023Z,19.35
2023-03-19T16:32:33.972Z,20.70
2023-03-19T16:35:21.915Z,19.02
2023-03-19T16:37:56.879Z,18.52
2023-03-19T16:40:26.887Z,19.27
2023-03-19T16:42:58.333Z,19.60
2023-03-19T16:45:33.366Z,18.73
2023-03-19T16:48:08.370Z,19.70
2023-03-19T16:50:43.280Z,19.42
2023-03-19T16:53:31.511Z,18.67
2023-03-19T16:56:03.810Z,18.55
2023-03-19T16:58:39.324Z,19.10
2023-03-19T17:01:31.869Z,18.63
2023-03-19T17:04:01.973Z,19.17
2023-03-19T17:06:36.515Z,18.83
2023-03-19T17:09:06.708Z,19.63
2023-03-19T17:11:42.947Z,19.13
2023-03-19T17:14:22.241Z,18.63
2023-03-19T17:16:56.685Z,18.55
2023-03-19T17:19:30.122Z,18.58
2023-03-19T17:22:01.760Z,18.58
2023-03-19T17:24:36.579Z,18.65
2023-03-19T17:27:07.099Z,18.52
2023-03-19T17:29:37.165Z,18.52
2023-03-19T17:32:10.313Z,17.48
2023-03-19T17:34:40.721Z,18.73
2023-03-19T17:37:19.089Z,17.57
2023-03-19T17:39:49.179Z,18.92
2023-03-19T17:42:27.822Z,18.35
2023-03-19T17:45:00.605Z,19.30
2023-03-19T17:47:30.896Z,19.42
2023-03-19T17:50:01.552Z,18.37
2023-03-19T17:52:32.798Z,18.83
2023-03-19T17:57:33.942Z,19.40
2023-03-19T18:00:04.154Z,19.52
2023-03-19T18:02:35.308Z,18.70
2023-03-19T18:05:06.240Z,18.95
2023-03-19T18:07:36.852Z,18.98
2023-03-19T18:10:06.982Z,20.03
2023-03-19T18:12:36.826Z,19.70
2023-03-19T18:15:07.050Z,19.40
2023-03-19T18:17:37.257Z,19.47
2023-03-19T18:20:08.497Z,18.80
2023-03-19T18:25:09.156Z,19.48
2023-03-19T18:27:39.241Z,19.27
2023-03-19T18:30:09.720Z,19.50
2023-03-19T18:32:45.433Z,17.57
2023-03-19T18:35:30.378Z,19.38
2023-03-19T18:38:00.862Z,19.48
2023-03-19T18:40:34.069Z,20.23
2023-03-19T18:43:04.360Z,19.77
2023-03-19T18:45:35.224Z,19.13
2023-03-19T18:48:05.340Z,19.20
2023-03-19T18:50:35.431Z,19.63
2023-03-19T18:53:05.729Z,18.15
2023-03-19T18:55:36.317Z,18.63
2023-03-19T18:58:06.643Z,19.40
2023-03-19T19:00:40.115Z,18.60
2023-03-19T19:03:10.299Z,19.60
2023-03-19T19:05:40.267Z,18.77
2023-03-19T19:08:19.529Z,19.77
2023-03-19T19:10:53.734Z,18.48
2023-03-19T19:13:29.363Z,18.75
2023-03-19T19:15:59.826Z,18.48
2023-03-19T19:18:33.946Z,18.57
2023-03-19T19:21:04.157Z,19.33
2023-03-19T19:23:34.125Z,17.88
2023-03-19T19:26:04.364Z,18.25
2023-03-19T19:28:41.369Z,18.65
2023-03-19T19:31:24.337Z,18.58
2023-03-19T19:33:55.801Z,18.90
2023-03-19T19:36:26.881Z,18.67
2023-03-19T19:38:57.459Z,18.40
2023-03-19T19:41:29.433Z,18.80
2023-03-19T19:44:03.697Z,17.83
2023-03-19T19:46:34.745Z,18.10
2023-03-19T19:49:04.849Z,18.13
2023-03-19T19:51:34.932Z,18.15
2023-03-19T19:54:05.165Z,19.15
2023-03-19T19:56:35.223Z,18.17
2023-03-19T19:59:08.067Z,18.13
2023-03-19T20:01:38.195Z,18.42
2023-03-19T20:04:08.376Z,18.80
2023-03-19T20:06:38.735Z,18.17
2023-03-19T20:09:09.960Z,17.98
2023-03-19T20:11:40.190Z,17.65
2023-03-19T20:14:16.011Z,18.38
2023-03-19T20:16:46.366Z,18.10
2023-03-19T20:19:22.225Z,17.10
2023-03-19T20:21:53.169Z,17.77
2023-03-19T20:24:23.209Z,18.35
2023-03-19T20:26:53.413Z,18.83
2023-03-19T20:29:23.529Z,17.23
2023-03-19T20:31:53.509Z,18.02
2023-03-19T20:34:38.443Z,18.48
2023-03-19T20:37:09.058Z,19.25
2023-03-19T20:39:38.878Z,17.15
2023-03-19T20:42:15.615Z,18.33
2023-03-19T20:44:47.322Z,18.30
2023-03-19T20:47:27.949Z,18.27
2023-03-19T20:49:57.921Z,18.77
2023-03-19T20:52:28.139Z,17.67
2023-03-19T20:54:58.883Z,18.50
2023-03-19T20:57:33.723Z,18.98
2023-03-19T21:00:15.125Z,18.63
2023-03-19T21:02:45.745Z,17.77
2023-03-19T21:05:17.197Z,19.13
2023-03-19T21:07:49.762Z,18.55
2023-03-19T21:10:30.716Z,17.83
2023-03-19T21:13:01.897Z,18.60
2023-03-19T21:15:32.156Z,18.90
2023-03-19T21:18:02.295Z,19.80
2023-03-19T21:20:34.398Z,19.27
2023-03-19T21:23:27.639Z,18.23
2023-03-19T21:25:58.163Z,17.85
2023-03-19T21:28:32.611Z,18.63
2023-03-19T21:31:02.891Z,18.45
2023-03-19T21:33:35.314Z,17.67
2023-03-19T21:36:06.318Z,17.10
2023-03-19T21:38:37.343Z,17.08
2023-03-19T21:41:12.656Z,17.35
2023-03-19T21:43:46.737Z,17.88
2023-03-19T21:46:24.723Z,17.58
2023-03-19T21:49:00.495Z,17.23
2023-03-19T21:51:32.624Z,16.70
2023-03-19T21:54:02.652Z,17.38
2023-03-19T21:56:35.650Z,17.48
2023-03-19T21:59:12.551Z,16.95
2023-03-19T22:01:43.794Z,16.52
2023-03-19T22:04:14.255Z,17.10
2023-03-19T22:06:45.123Z,16.97
2023-03-19T22:09:15.621Z,17.13
2023-03-19T22:11:48.176Z,16.52
2023-03-19T22:14:26.968Z,16.23
2023-03-19T22:16:58.628Z,16.88
2023-03-19T22:19:28.765Z,16.83
2023-03-19T22:21:58.587Z,15.95
2023-03-19T22:24:28.455Z,17.90
2023-03-19T22:27:00.028Z,16.42
2023-03-19T22:29:30.267Z,16.27
2023-03-19T22:32:00.694Z,17.90
2023-03-19T22:34:30.871Z,17.33
2023-03-19T22:37:02.322Z,16.08
2023-03-19T22:39:32.714Z,16.63
2023-03-19T22:42:02.765Z,17.35
2023-03-19T22:44:33.501Z,17.58
2023-03-19T22:47:04.807Z,15.98
2023-03-19T22:49:36.571Z,16.55
2023-03-19T22:52:06.775Z,16.70
2023-03-19T22:54:37.955Z,16.70
2023-03-19T22:57:08.740Z,16.67
2023-03-19T23:02:18.832Z,17.67
2023-03-19T23:04:50.142Z,17.02
2023-03-19T23:07:21.260Z,17.17
2023-03-19T23:09:51.581Z,17.88
2023-03-19T23:12:22.655Z,18.70
2023-03-19T23:14:52.935Z,17.73
2023-03-19T23:17:23.157Z,18.75
2023-03-19T23:19:53.310Z,17.45
2023-03-19T23:22:23.772Z,17.90
2023-03-19T23:24:53.789Z,17.13
2023-03-19T23:27:27.093Z,17.05
2023-03-19T23:29:57.362Z,16.77
2023-03-19T23:32:28.828Z,17.75
2023-03-19T23:35:01.840Z,16.65
2023-03-19T23:37:32.175Z,17.25
2023-03-19T23:40:02.490Z,16.02
2023-03-19T23:42:34.210Z,17.63
2023-03-19T23:45:08.775Z,18.40
2023-03-19T23:47:39.145Z,18.02
2023-03-19T23:50:14.974Z,16.40
2023-03-19T23:52:45.057Z,17.05
2023-03-19T23:55:15.130Z,16.75
2023-03-19T23:57:46.606Z,17.85
